Weather at Julian Carroll Airport

Public forecast

Using degrees Fahrenheit for public forecast. Weather courtesy of forecast.io.

Current aviation weather report (METAR) for Julian Carroll Airport

Retrieved 2021/03/07 23:53 UTC (2 hours ago):

KJKL 072353Z AUTO VRB03KT 10SM CLR 07/M17 A3041 RMK AO2 SLP306 T00721172 10106 20072 53012

Aviation forecast (TAF) for Julian Carroll Airport

Forecast is more than 6 hours old.

Retrieved 2021/03/07 18:36 UTC (7 hours ago):

TAF KJKL 071734Z 0718/0818 31007KT P6SM SKC FM072300 VRB03KT P6SM SKC